createdAt,value
2023-04-23T00:02:23.751Z,14.12
2023-04-23T00:04:54.289Z,14.12
2023-04-23T00:07:22.499Z,14.12
2023-04-23T00:09:53.876Z,14.13
2023-04-23T00:12:22.229Z,14.13
2023-04-23T00:14:50.258Z,14.12
2023-04-23T00:17:18.185Z,14.13
2023-04-23T00:19:46.111Z,14.13
2023-04-23T00:22:14.519Z,14.14
2023-04-23T00:24:42.340Z,14.13
2023-04-23T00:27:11.667Z,14.14
2023-04-23T00:29:39.461Z,14.11
2023-04-23T00:32:09.098Z,14.12
2023-04-23T00:34:36.927Z,14.10
2023-04-23T00:37:06.776Z,14.09
2023-04-23T00:39:35.880Z,14.08
2023-04-23T00:42:10.534Z,14.06
2023-04-23T00:44:40.852Z,14.02
2023-04-23T00:47:08.886Z,14.00
2023-04-23T00:49:36.901Z,13.96
2023-04-23T00:52:05.150Z,13.94
2023-04-23T00:54:32.893Z,13.91
2023-04-23T00:57:01.000Z,13.90
2023-04-23T00:59:29.771Z,13.88
2023-04-23T01:01:59.869Z,13.88
2023-04-23T01:04:31.211Z,13.88
2023-04-23T01:07:00.551Z,13.84
2023-04-23T01:09:28.788Z,13.82
2023-04-23T01:11:58.718Z,13.80
2023-04-23T01:14:27.342Z,13.79
2023-04-23T01:16:56.301Z,13.77
2023-04-23T01:19:25.583Z,13.73
2023-04-23T01:21:53.447Z,13.72
2023-04-23T01:24:22.595Z,13.70
2023-04-23T01:26:51.562Z,13.69
2023-04-23T01:29:19.417Z,13.68
2023-04-23T01:31:48.494Z,13.68
2023-04-23T01:34:16.598Z,13.66
2023-04-23T01:36:46.609Z,13.65
2023-04-23T01:39:14.353Z,13.64
2023-04-23T01:41:43.595Z,13.63
2023-04-23T01:44:11.584Z,13.63
2023-04-23T01:46:39.420Z,13.63
2023-04-23T01:49:07.424Z,13.64
2023-04-23T01:51:35.828Z,13.64
2023-04-23T01:54:03.580Z,13.64
2023-04-23T01:56:33.415Z,13.64
2023-04-23T01:59:02.810Z,13.64
2023-04-23T02:01:44.151Z,13.64
2023-04-23T02:04:13.575Z,13.64
2023-04-23T02:06:42.790Z,13.64
2023-04-23T02:09:11.655Z,13.63
2023-04-23T02:11:39.749Z,13.64
2023-04-23T02:14:09.783Z,13.61
2023-04-23T02:16:37.782Z,13.60
2023-04-23T02:19:05.826Z,13.59
2023-04-23T02:21:33.641Z,13.55
2023-04-23T02:24:01.433Z,13.55
2023-04-23T02:26:29.749Z,13.53
2023-04-23T02:28:57.468Z,13.52
2023-04-23T02:31:26.760Z,13.52
2023-04-23T02:33:55.847Z,13.52
2023-04-23T02:36:23.662Z,13.51
2023-04-23T02:38:51.553Z,13.50
2023-04-23T02:41:19.314Z,13.49
2023-04-23T02:43:47.065Z,13.50
2023-04-23T02:46:14.803Z,13.48
2023-04-23T02:48:43.935Z,13.49
2023-04-23T02:51:13.377Z,13.49
2023-04-23T02:53:41.192Z,13.49
2023-04-23T02:56:08.958Z,13.47
2023-04-23T02:58:36.948Z,13.47
2023-04-23T03:01:05.337Z,13.44
2023-04-23T03:03:34.100Z,13.43
2023-04-23T03:06:07.790Z,13.39
2023-04-23T03:08:35.605Z,13.38
2023-04-23T03:11:03.295Z,13.37
2023-04-23T03:13:31.153Z,13.35
2023-04-23T03:15:58.896Z,13.33
2023-04-23T03:18:27.565Z,13.33
2023-04-23T03:20:56.946Z,13.32
2023-04-23T03:23:26.076Z,13.33
2023-04-23T03:25:53.758Z,13.32
2023-04-23T03:28:21.454Z,13.33
2023-04-23T03:30:49.193Z,13.33
2023-04-23T03:33:17.151Z,13.32
2023-04-23T03:35:45.026Z,13.32
2023-04-23T03:38:17.440Z,13.31
2023-04-23T03:40:46.787Z,13.32
2023-04-23T03:43:14.542Z,13.31
2023-04-23T03:46:00.719Z,13.30
2023-04-23T03:48:30.294Z,13.29
2023-04-23T03:50:58.789Z,13.28
2023-04-23T03:53:35.707Z,13.26
2023-04-23T03:56:25.148Z,13.24
2023-04-23T03:59:08.868Z,13.21
2023-04-23T04:01:37.077Z,13.18
2023-04-23T04:04:05.154Z,13.15
2023-04-23T04:06:33.977Z,13.10
2023-04-23T04:09:01.720Z,13.07
2023-04-23T04:11:31.499Z,13.07
2023-04-23T04:13:59.211Z,13.06
2023-04-23T04:16:26.933Z,13.06
2023-04-23T04:18:56.321Z,13.05
2023-04-23T04:21:24.406Z,13.03
2023-04-23T04:23:52.115Z,13.01
2023-04-23T04:26:20.448Z,12.99
2023-04-23T04:28:49.484Z,12.99
2023-04-23T04:31:17.287Z,12.98
2023-04-23T04:33:46.400Z,12.96
2023-04-23T04:36:14.603Z,12.94
2023-04-23T04:38:42.281Z,12.92
2023-04-23T04:41:11.474Z,12.91
2023-04-23T04:43:39.232Z,12.89
2023-04-23T04:46:11.723Z,12.87
2023-04-23T04:48:40.124Z,12.86
2023-04-23T04:51:07.984Z,12.86
2023-04-23T04:53:36.190Z,12.85
2023-04-23T04:56:03.930Z,12.87
2023-04-23T04:58:31.814Z,12.88
2023-04-23T05:01:00.298Z,12.88
2023-04-23T05:03:29.665Z,12.87
2023-04-23T05:05:58.856Z,12.86
2023-04-23T05:08:26.632Z,12.84
2023-04-23T05:10:54.866Z,12.83
2023-04-23T05:13:23.160Z,12.84
2023-04-23T05:15:50.816Z,12.84
2023-04-23T05:18:18.522Z,12.85
2023-04-23T05:20:47.615Z,12.86
2023-04-23T05:23:15.357Z,12.86
2023-04-23T05:25:43.050Z,12.86
2023-04-23T05:28:10.757Z,12.88
2023-04-23T05:30:38.851Z,12.90
2023-04-23T05:33:06.743Z,12.92
2023-04-23T05:35:34.510Z,12.94
2023-04-23T05:38:05.030Z,12.94
2023-04-23T05:40:32.894Z,12.95
2023-04-23T05:43:00.819Z,12.96
2023-04-23T05:45:28.948Z,12.96
2023-04-23T05:47:56.686Z,12.94
2023-04-23T05:50:24.663Z,12.92
2023-04-23T05:52:52.424Z,12.90
2023-04-23T05:55:23.880Z,12.90
2023-04-23T05:57:51.609Z,12.88
2023-04-23T06:00:19.471Z,12.85
2023-04-23T06:02:47.994Z,12.85
2023-04-23T06:05:16.595Z,12.86
2023-04-23T06:07:44.749Z,12.85
2023-04-23T06:10:13.228Z,12.85
2023-04-23T06:12:42.526Z,12.85
2023-04-23T06:15:11.412Z,12.85
2023-04-23T06:17:39.398Z,12.85
2023-04-23T06:20:09.035Z,12.85
2023-04-23T06:22:36.889Z,12.85
2023-04-23T06:25:05.190Z,12.85
2023-04-23T06:27:33.869Z,12.85
2023-04-23T06:30:10.478Z,12.84
2023-04-23T06:32:39.002Z,12.82
2023-04-23T06:35:08.474Z,12.82
2023-04-23T06:37:36.643Z,12.80
2023-04-23T06:40:04.790Z,12.79
2023-04-23T06:42:32.508Z,12.79
2023-04-23T06:45:21.525Z,12.78
2023-04-23T06:47:49.828Z,12.80
2023-04-23T06:50:18.229Z,12.81
2023-04-23T06:52:46.151Z,12.82
2023-04-23T06:55:14.009Z,12.80
2023-04-23T06:57:41.780Z,12.79
2023-04-23T07:00:11.763Z,12.79
2023-04-23T07:02:43.720Z,12.78
2023-04-23T07:05:11.747Z,12.77
2023-04-23T07:07:40.714Z,12.77
2023-04-23T07:10:10.191Z,12.79
2023-04-23T07:12:38.148Z,12.81
2023-04-23T07:15:07.716Z,12.85
2023-04-23T07:17:36.076Z,12.91
2023-04-23T07:20:06.640Z,12.95
2023-04-23T07:22:34.504Z,12.96
2023-04-23T07:25:02.599Z,12.98
2023-04-23T07:27:30.346Z,13.00
2023-04-23T07:29:58.580Z,13.02
2023-04-23T07:32:28.376Z,13.02
2023-04-23T07:34:56.634Z,13.01
2023-04-23T07:37:25.737Z,13.01
2023-04-23T07:39:54.012Z,13.01
2023-04-23T07:42:21.768Z,13.02
2023-04-23T07:44:49.572Z,13.07
2023-04-23T07:47:17.226Z,13.09
2023-04-23T07:49:45.028Z,13.15
2023-04-23T07:52:12.895Z,13.16
2023-04-23T07:54:42.036Z,13.18
2023-04-23T07:57:10.395Z,13.18
2023-04-23T07:59:39.501Z,13.17
2023-04-23T08:02:07.702Z,13.16
2023-04-23T08:04:35.676Z,13.15
2023-04-23T08:07:03.742Z,13.14
2023-04-23T08:09:31.716Z,13.13
2023-04-23T08:12:02.065Z,13.12
2023-04-23T08:14:29.773Z,13.14
2023-04-23T08:16:57.675Z,13.13
2023-04-23T08:19:25.862Z,13.15
2023-04-23T08:21:53.951Z,13.20
2023-04-23T08:24:21.776Z,13.24
2023-04-23T08:26:49.868Z,13.31
2023-04-23T08:29:19.046Z,13.36
2023-04-23T08:31:46.842Z,13.41
2023-04-23T08:34:15.041Z,13.44
2023-04-23T08:36:42.924Z,13.47
2023-04-23T08:39:10.806Z,13.52
2023-04-23T08:41:42.689Z,13.60
2023-04-23T08:44:14.886Z,13.70
2023-04-23T08:46:46.437Z,13.83
2023-04-23T08:49:16.142Z,13.92
2023-04-23T08:51:49.278Z,13.99
2023-04-23T08:54:23.516Z,14.20
2023-04-23T08:56:52.584Z,14.47
2023-04-23T08:59:23.055Z,14.59
2023-04-23T09:01:52.821Z,14.65
2023-04-23T09:04:21.131Z,14.70
2023-04-23T09:06:48.868Z,14.73
2023-04-23T09:09:17.976Z,14.78
2023-04-23T09:11:46.128Z,14.82
2023-04-23T09:14:14.290Z,14.84
2023-04-23T09:16:42.758Z,14.91
2023-04-23T09:19:12.618Z,14.88
2023-04-23T09:21:41.004Z,14.89
2023-04-23T09:24:12.432Z,14.96
2023-04-23T09:26:46.782Z,15.03
2023-04-23T09:29:17.488Z,15.20
2023-04-23T09:31:47.638Z,15.36
2023-04-23T09:34:18.508Z,15.54
2023-04-23T09:36:47.136Z,15.64
2023-04-23T09:39:15.436Z,15.92
2023-04-23T09:41:43.313Z,16.14
2023-04-23T09:44:12.398Z,16.30
2023-04-23T09:46:41.633Z,16.42
2023-04-23T09:49:10.564Z,16.43
2023-04-23T09:51:40.818Z,16.62
2023-04-23T09:54:13.346Z,16.82
2023-04-23T09:56:41.332Z,16.85
2023-04-23T09:59:32.488Z,17.01
2023-04-23T10:02:09.612Z,17.29
2023-04-23T10:04:37.544Z,17.49
2023-04-23T10:09:44.302Z,17.90
2023-04-23T10:12:28.961Z,18.09
2023-04-23T10:15:00.818Z,18.32
2023-04-23T10:17:28.585Z,18.60
2023-04-23T10:19:56.868Z,18.66
2023-04-23T10:22:29.558Z,18.76
2023-04-23T10:24:59.261Z,18.72
2023-04-23T10:27:40.274Z,18.72
2023-04-23T10:30:17.375Z,18.81
2023-04-23T10:32:46.102Z,19.07
2023-04-23T10:35:13.754Z,19.30
2023-04-23T10:37:43.782Z,19.25
2023-04-23T10:40:15.171Z,19.36
2023-04-23T10:42:45.401Z,19.60
2023-04-23T10:47:48.079Z,19.85
2023-04-23T10:50:24.389Z,19.84
2023-04-23T10:52:54.526Z,20.01
2023-04-23T10:55:24.421Z,20.28
2023-04-23T10:58:03.255Z,20.51
2023-04-23T11:00:45.487Z,20.66
2023-04-23T11:03:32.123Z,21.00
2023-04-23T11:06:02.918Z,20.91
2023-04-23T11:08:33.094Z,20.74
2023-04-23T11:11:02.423Z,20.78
2023-04-23T11:13:31.304Z,20.76
2023-04-23T11:16:15.591Z,20.92
2023-04-23T11:18:56.481Z,21.04
2023-04-23T11:21:24.109Z,21.01
2023-04-23T11:23:53.062Z,21.13
2023-04-23T11:26:22.524Z,21.43
2023-04-23T11:28:53.616Z,21.78
2023-04-23T11:31:21.351Z,22.08
2023-04-23T11:33:48.965Z,22.24
2023-04-23T11:36:16.935Z,22.24
2023-04-23T11:38:46.164Z,21.91
2023-04-23T11:41:15.408Z,21.70
2023-04-23T11:43:43.595Z,21.78
2023-04-23T11:46:11.261Z,21.73
2023-04-23T11:48:38.946Z,22.03
2023-04-23T11:51:06.673Z,22.13
2023-04-23T11:53:35.214Z,22.20
2023-04-23T11:56:02.952Z,22.45
2023-04-23T11:58:31.864Z,22.72
2023-04-23T12:01:00.702Z,22.70
2023-04-23T12:03:29.959Z,22.13
2023-04-23T12:05:57.831Z,21.59
2023-04-23T12:08:25.776Z,21.50
2023-04-23T12:10:55.035Z,21.73
2023-04-23T12:13:24.212Z,22.06
2023-04-23T12:15:56.526Z,22.39
2023-04-23T12:18:28.876Z,22.78
2023-04-23T12:20:57.490Z,22.85
2023-04-23T12:23:28.074Z,23.07
2023-04-23T12:25:56.659Z,23.37
2023-04-23T12:30:53.923Z,23.57
2023-04-23T12:33:21.889Z,23.56
2023-04-23T12:35:51.804Z,23.61
2023-04-23T12:38:24.515Z,23.43
2023-04-23T12:40:52.569Z,23.34
2023-04-23T12:43:20.231Z,23.54
2023-04-23T12:45:47.947Z,23.89
2023-04-23T12:48:16.983Z,24.17
2023-04-23T12:50:46.037Z,24.53
2023-04-23T12:53:14.080Z,24.89
2023-04-23T12:55:43.220Z,25.22
2023-04-23T12:58:10.888Z,25.49
2023-04-23T13:00:38.673Z,25.80
2023-04-23T13:03:06.429Z,25.91
2023-04-23T13:05:35.550Z,26.05
2023-04-23T13:08:03.149Z,26.15
2023-04-23T13:10:30.991Z,26.11
2023-04-23T13:12:58.660Z,26.10
2023-04-23T13:15:27.115Z,26.16
2023-04-23T13:17:54.948Z,26.00
2023-04-23T13:20:22.709Z,25.55
2023-04-23T13:22:51.713Z,25.10
2023-04-23T13:25:19.486Z,24.67
2023-04-23T13:27:47.122Z,24.46
2023-04-23T13:30:15.151Z,24.31
2023-04-23T13:32:42.803Z,24.32
2023-04-23T13:35:11.023Z,24.40
2023-04-23T13:37:41.101Z,24.28
2023-04-23T13:40:14.210Z,24.34
2023-04-23T13:42:41.820Z,24.34
2023-04-23T13:45:09.952Z,24.45
2023-04-23T13:47:37.648Z,24.48
2023-04-23T13:50:06.943Z,24.22
2023-04-23T13:52:34.845Z,24.14
2023-04-23T13:55:03.990Z,24.09
2023-04-23T14:00:00.616Z,24.18
2023-04-23T14:02:28.422Z,24.14
2023-04-23T14:04:56.278Z,24.14
2023-04-23T14:09:52.895Z,24.35
2023-04-23T14:12:20.782Z,24.27
2023-04-23T14:14:49.434Z,24.25
2023-04-23T14:17:18.404Z,24.13
2023-04-23T14:19:46.016Z,23.87
2023-04-23T14:22:13.965Z,23.68
2023-04-23T14:24:47.255Z,23.42
2023-04-23T14:27:14.982Z,23.29
2023-04-23T14:29:47.342Z,23.32
2023-04-23T14:32:15.057Z,23.29
2023-04-23T14:34:45.149Z,23.10
2023-04-23T14:37:12.901Z,22.94
2023-04-23T14:39:42.289Z,22.84
2023-04-23T14:42:10.463Z,22.67
2023-04-23T14:44:38.149Z,22.50
2023-04-23T14:47:08.081Z,22.35
2023-04-23T14:49:35.864Z,22.26
2023-04-23T14:52:04.965Z,22.20
2023-04-23T14:54:32.615Z,22.10
2023-04-23T14:57:00.540Z,21.97
2023-04-23T14:59:28.303Z,21.81
2023-04-23T15:01:56.609Z,21.71
2023-04-23T15:04:24.559Z,21.69
2023-04-23T15:06:52.257Z,21.62
2023-04-23T15:09:21.207Z,21.46
2023-04-23T15:11:48.883Z,21.34
2023-04-23T15:14:21.497Z,21.22
2023-04-23T15:16:50.052Z,21.20
2023-04-23T15:19:19.178Z,21.25
2023-04-23T15:21:47.265Z,21.26
2023-04-23T15:24:15.322Z,21.20
2023-04-23T15:26:45.825Z,21.11
2023-04-23T15:29:14.157Z,21.04
2023-04-23T15:31:42.609Z,20.97
2023-04-23T15:34:11.605Z,21.01
2023-04-23T15:36:39.330Z,20.99
2023-04-23T15:39:07.564Z,20.90
2023-04-23T15:41:39.418Z,20.83
2023-04-23T15:44:12.354Z,20.75
2023-04-23T15:46:40.798Z,20.65
2023-04-23T15:49:08.714Z,20.53
2023-04-23T15:51:36.701Z,20.48
2023-04-23T15:54:07.974Z,20.36
2023-04-23T15:56:35.912Z,20.27
2023-04-23T15:59:03.605Z,20.20
2023-04-23T16:01:32.684Z,20.12
2023-04-23T16:06:31.787Z,19.97
2023-04-23T16:08:59.505Z,19.94
2023-04-23T16:11:28.247Z,19.94
2023-04-23T16:13:57.063Z,19.87
2023-04-23T16:16:24.838Z,19.79
2023-04-23T16:18:55.689Z,19.70
2023-04-23T16:21:24.094Z,19.59
2023-04-23T16:23:52.047Z,19.49
2023-04-23T16:26:19.784Z,19.41
2023-04-23T16:28:52.227Z,19.32
2023-04-23T16:31:33.113Z,19.23
2023-04-23T16:34:02.271Z,19.14
2023-04-23T16:36:30.209Z,19.06
2023-04-23T16:38:58.082Z,18.99
2023-04-23T16:41:25.747Z,18.93
2023-04-23T16:43:53.520Z,18.86
2023-04-23T16:46:21.369Z,18.80
2023-04-23T16:48:49.116Z,18.77
2023-04-23T16:51:18.328Z,18.71
2023-04-23T16:53:45.966Z,18.65
2023-04-23T16:56:13.900Z,18.60
2023-04-23T16:58:41.698Z,18.54
2023-04-23T17:01:09.399Z,18.49
2023-04-23T17:03:37.376Z,18.44
2023-04-23T17:06:11.275Z,18.39
2023-04-23T17:08:40.936Z,18.34
2023-04-23T17:11:09.011Z,18.27
2023-04-23T17:13:37.548Z,18.20
2023-04-23T17:16:05.294Z,18.15
2023-04-23T17:18:33.352Z,18.09
2023-04-23T17:21:01.313Z,18.03
2023-04-23T17:23:28.973Z,17.93
2023-04-23T17:25:57.998Z,17.85
2023-04-23T17:28:25.644Z,17.76
2023-04-23T17:30:55.764Z,17.69
2023-04-23T17:33:24.389Z,17.61
2023-04-23T17:35:53.228Z,17.54
2023-04-23T17:38:21.320Z,17.48
2023-04-23T17:40:49.837Z,17.42
2023-04-23T17:43:19.053Z,17.35
2023-04-23T17:45:47.665Z,17.27
2023-04-23T17:48:16.441Z,17.19
2023-04-23T17:50:44.603Z,17.15
2023-04-23T17:53:12.264Z,17.08
2023-04-23T17:55:41.296Z,17.04
2023-04-23T17:58:09.990Z,16.97
2023-04-23T18:00:41.789Z,16.92
2023-04-23T18:03:11.258Z,16.84
2023-04-23T18:05:38.959Z,16.78
2023-04-23T18:08:07.748Z,16.70
2023-04-23T18:10:35.700Z,16.63
2023-04-23T18:13:04.761Z,16.56
2023-04-23T18:15:33.537Z,16.48
2023-04-23T18:18:02.573Z,16.40
2023-04-23T18:20:31.957Z,16.32
2023-04-23T18:22:59.631Z,16.25
2023-04-23T18:25:27.537Z,16.19
2023-04-23T18:27:55.190Z,16.10
2023-04-23T18:30:23.518Z,16.02
2023-04-23T18:33:00.654Z,15.94
2023-04-23T18:35:29.745Z,15.87
2023-04-23T18:38:06.684Z,15.82
2023-04-23T18:40:34.547Z,15.74
2023-04-23T18:43:02.676Z,15.70
2023-04-23T18:45:30.378Z,15.63
2023-04-23T18:47:59.463Z,15.58
2023-04-23T18:50:42.644Z,15.50
2023-04-23T18:53:10.409Z,15.44
2023-04-23T18:55:38.140Z,15.38
2023-04-23T18:58:05.821Z,15.31
2023-04-23T19:00:33.588Z,15.25
2023-04-23T19:03:06.500Z,15.20
2023-04-23T19:05:38.520Z,15.13
2023-04-23T19:08:07.177Z,15.06
2023-04-23T19:10:34.847Z,15.00
2023-04-23T19:13:02.489Z,14.96
2023-04-23T19:15:31.201Z,14.90
2023-04-23T19:17:59.834Z,14.85
2023-04-23T19:20:28.086Z,14.79
2023-04-23T19:22:57.226Z,14.74
2023-04-23T19:25:24.920Z,14.68
2023-04-23T19:27:52.682Z,14.62
2023-04-23T19:30:20.426Z,14.57
2023-04-23T19:32:48.113Z,14.51
2023-04-23T19:35:15.982Z,14.48
2023-04-23T19:37:43.635Z,14.41
2023-04-23T19:40:14.611Z,14.38
2023-04-23T19:42:42.268Z,14.31
2023-04-23T19:45:10.553Z,14.27
2023-04-23T19:47:40.022Z,14.22
2023-04-23T19:50:09.821Z,14.16
2023-04-23T19:52:37.568Z,14.11
2023-04-23T19:55:06.239Z,14.05
2023-04-23T19:57:35.603Z,14.00
2023-04-23T20:00:05.019Z,13.96
2023-04-23T20:02:34.245Z,13.93
2023-04-23T20:05:03.158Z,13.89
2023-04-23T20:07:30.938Z,13.85
2023-04-23T20:09:58.571Z,13.81
2023-04-23T20:12:26.272Z,13.78
2023-04-23T20:14:55.824Z,13.73
2023-04-23T20:17:23.717Z,13.70
2023-04-23T20:19:51.423Z,13.65
2023-04-23T20:22:19.282Z,13.63
2023-04-23T20:24:49.093Z,13.59
2023-04-23T20:27:17.250Z,13.57
2023-04-23T20:29:44.944Z,13.53
2023-04-23T20:32:14.184Z,13.50
2023-04-23T20:34:41.852Z,13.47
2023-04-23T20:37:10.330Z,13.42
2023-04-23T20:39:38.339Z,13.41
2023-04-23T20:42:07.091Z,13.39
2023-04-23T20:44:34.806Z,13.36
2023-04-23T20:47:05.686Z,13.33
2023-04-23T20:49:34.934Z,13.30
2023-04-23T20:52:02.708Z,13.26
2023-04-23T20:54:30.919Z,13.22
2023-04-23T20:56:58.642Z,13.20
2023-04-23T20:59:26.342Z,13.14
2023-04-23T21:01:54.176Z,13.13
2023-04-23T21:04:21.999Z,13.07
2023-04-23T21:06:51.524Z,13.02
2023-04-23T21:09:19.216Z,13.00
2023-04-23T21:11:46.904Z,12.96
2023-04-23T21:14:14.581Z,12.92
2023-04-23T21:16:42.212Z,12.88
2023-04-23T21:19:09.874Z,12.85
2023-04-23T21:21:37.525Z,12.81
2023-04-23T21:24:07.822Z,12.76
2023-04-23T21:26:35.463Z,12.72
2023-04-23T21:29:03.210Z,12.69
2023-04-23T21:31:42.145Z,12.66
2023-04-23T21:34:09.880Z,12.61
2023-04-23T21:36:37.718Z,12.59
2023-04-23T21:39:08.054Z,12.53
2023-04-23T21:41:35.867Z,12.49
2023-04-23T21:44:03.649Z,12.47
2023-04-23T21:46:32.164Z,12.43
2023-04-23T21:48:59.944Z,12.40
2023-04-23T21:51:28.071Z,12.35
2023-04-23T21:53:55.761Z,12.31
2023-04-23T21:56:24.790Z,12.27
2023-04-23T21:58:52.492Z,12.23
2023-04-23T22:01:20.378Z,12.20
2023-04-23T22:03:48.321Z,12.15
2023-04-23T22:06:17.483Z,12.14
2023-04-23T22:08:46.325Z,12.11
2023-04-23T22:11:14.658Z,12.07
2023-04-23T22:13:43.723Z,12.05
2023-04-23T22:16:24.581Z,12.01
2023-04-23T22:18:55.760Z,11.98
2023-04-23T22:21:23.600Z,11.95
2023-04-23T22:23:51.295Z,11.93
2023-04-23T22:26:18.910Z,11.89
2023-04-23T22:28:48.174Z,11.86
2023-04-23T22:31:15.937Z,11.83
2023-04-23T22:33:43.827Z,11.84
2023-04-23T22:36:11.552Z,11.82
2023-04-23T22:38:39.478Z,11.83
2023-04-23T22:41:07.828Z,11.82
2023-04-23T22:43:35.467Z,11.83
2023-04-23T22:46:04.642Z,11.82
2023-04-23T22:48:32.317Z,11.84
2023-04-23T22:51:00.019Z,11.84
2023-04-23T22:53:27.647Z,11.85
2023-04-23T22:55:55.278Z,11.87
2023-04-23T22:58:23.126Z,11.88
2023-04-23T23:00:51.462Z,11.89
2023-04-23T23:03:20.613Z,11.89
2023-04-23T23:05:48.491Z,11.91
2023-04-23T23:08:16.209Z,11.92
2023-04-23T23:10:43.874Z,11.92
2023-04-23T23:13:11.556Z,11.94
2023-04-23T23:15:39.245Z,11.94
2023-04-23T23:18:07.773Z,11.95
2023-04-23T23:20:36.852Z,11.92
2023-04-23T23:23:04.603Z,11.90
2023-04-23T23:25:32.667Z,11.89
2023-04-23T23:28:00.308Z,11.87
2023-04-23T23:30:27.939Z,11.82
2023-04-23T23:32:56.845Z,11.78
2023-04-23T23:35:24.548Z,11.74
2023-04-23T23:37:53.729Z,11.71
2023-04-23T23:40:21.622Z,11.70
2023-04-23T23:42:49.316Z,11.67
2023-04-23T23:45:17.078Z,11.67
2023-04-23T23:47:46.963Z,11.66
2023-04-23T23:50:14.747Z,11.66
2023-04-23T23:52:42.381Z,11.68
2023-04-23T23:55:11.951Z,11.69
2023-04-23T23:57:40.330Z,11.70
